sensor_id;sensor_type;location;lat;lon;timestamp;pressure;altitude;pressure_sealevel;temperature;humidity
57791;BME280;43621;51.798;21.588;2022-12-18T00:01:32;101169.17;;;-4.67;71.54
57791;BME280;43621;51.798;21.588;2022-12-18T00:05:35;101176.21;;;-4.71;71.60
57791;BME280;43621;51.798;21.588;2022-12-18T00:09:38;101183.89;;;-4.72;71.65
57791;BME280;43621;51.798;21.588;2022-12-18T00:13:40;101188.98;;;-4.72;71.59
57791;BME280;43621;51.798;21.588;2022-12-18T00:17:42;101191.67;;;-4.68;71.49
57791;BME280;43621;51.798;21.588;2022-12-18T00:21:44;101198.91;;;-4.58;71.46
57791;BME280;43621;51.798;21.588;2022-12-18T00:25:46;101196.41;;;-4.47;71.61
57791;BME280;43621;51.798;21.588;2022-12-18T00:29:48;101201.09;;;-4.39;71.51
57791;BME280;43621;51.798;21.588;2022-12-18T00:33:50;101208.91;;;-4.38;71.55
57791;BME280;43621;51.798;21.588;2022-12-18T00:37:52;101218.68;;;-4.42;71.61
57791;BME280;43621;51.798;21.588;2022-12-18T00:41:54;101230.02;;;-4.51;71.57
57791;BME280;43621;51.798;21.588;2022-12-18T00:46:15;101230.08;;;-4.58;71.60
57791;BME280;43621;51.798;21.588;2022-12-18T00:50:17;101230.15;;;-4.64;71.65
57791;BME280;43621;51.798;21.588;2022-12-18T00:54:19;101230.90;;;-4.72;71.53
57791;BME280;43621;51.798;21.588;2022-12-18T00:58:21;101237.05;;;-4.73;71.55
57791;BME280;43621;51.798;21.588;2022-12-18T01:02:23;101243.64;;;-4.67;71.52
57791;BME280;43621;51.798;21.588;2022-12-18T01:06:25;101249.53;;;-4.61;71.40
57791;BME280;43621;51.798;21.588;2022-12-18T01:10:27;101249.50;;;-4.57;71.49
57791;BME280;43621;51.798;21.588;2022-12-18T01:14:29;101253.58;;;-4.55;71.60
57791;BME280;43621;51.798;21.588;2022-12-18T01:18:31;101254.80;;;-4.58;71.54
57791;BME280;43621;51.798;21.588;2022-12-18T01:22:33;101259.80;;;-4.65;71.47
57791;BME280;43621;51.798;21.588;2022-12-18T01:26:34;101266.64;;;-4.69;71.56
57791;BME280;43621;51.798;21.588;2022-12-18T01:30:36;101273.11;;;-4.68;71.47
57791;BME280;43621;51.798;21.588;2022-12-18T01:34:38;101275.13;;;-4.64;71.42
57791;BME280;43621;51.798;21.588;2022-12-18T01:38:40;101279.86;;;-4.60;71.32
57791;BME280;43621;51.798;21.588;2022-12-18T01:42:42;101287.48;;;-4.56;71.30
57791;BME280;43621;51.798;21.588;2022-12-18T01:46:44;101287.48;;;-4.56;71.35
57791;BME280;43621;51.798;21.588;2022-12-18T01:50:46;101289.75;;;-4.62;71.27
57791;BME280;43621;51.798;21.588;2022-12-18T01:54:50;101293.04;;;-4.67;71.31
57791;BME280;43621;51.798;21.588;2022-12-18T01:59:02;101298.51;;;-4.70;71.41
57791;BME280;43621;51.798;21.588;2022-12-18T02:03:05;101306.54;;;-4.73;71.44
57791;BME280;43621;51.798;21.588;2022-12-18T02:11:27;101312.50;;;-4.73;71.30
57791;BME280;43621;51.798;21.588;2022-12-18T02:24:39;101325.11;;;-4.52;71.38
57791;BME280;43621;51.798;21.588;2022-12-18T02:29:03;101323.95;;;-4.54;71.36
57791;BME280;43621;51.798;21.588;2022-12-18T02:33:08;101339.65;;;-4.59;71.36
57791;BME280;43621;51.798;21.588;2022-12-18T02:37:15;101344.47;;;-4.65;71.31
57791;BME280;43621;51.798;21.588;2022-12-18T02:41:18;101346.20;;;-4.68;71.32
57791;BME280;43621;51.798;21.588;2022-12-18T02:45:20;101349.12;;;-4.71;71.42
57791;BME280;43621;51.798;21.588;2022-12-18T02:49:36;101349.11;;;-4.71;71.35
57791;BME280;43621;51.798;21.588;2022-12-18T02:53:55;101356.55;;;-4.64;71.25
57791;BME280;43621;51.798;21.588;2022-12-18T02:58:14;101363.98;;;-4.54;71.40
57791;BME280;43621;51.798;21.588;2022-12-18T03:02:23;101367.84;;;-4.45;71.31
57791;BME280;43621;51.798;21.588;2022-12-18T03:06:42;101374.10;;;-4.41;71.28
57791;BME280;43621;51.798;21.588;2022-12-18T03:15:03;101388.13;;;-4.47;71.30
57791;BME280;43621;51.798;21.588;2022-12-18T03:19:16;101394.46;;;-4.51;71.35
57791;BME280;43621;51.798;21.588;2022-12-18T03:23:28;101407.95;;;-4.54;71.38
57791;BME280;43621;51.798;21.588;2022-12-18T03:27:33;101408.48;;;-4.57;71.35
57791;BME280;43621;51.798;21.588;2022-12-18T03:31:40;101414.29;;;-4.59;71.27
57791;BME280;43621;51.798;21.588;2022-12-18T03:35:44;101413.45;;;-4.62;71.21
57791;BME280;43621;51.798;21.588;2022-12-18T03:39:46;101417.36;;;-4.60;71.21
57791;BME280;43621;51.798;21.588;2022-12-18T03:44:13;101425.64;;;-4.51;71.19
57791;BME280;43621;51.798;21.588;2022-12-18T03:48:41;101427.27;;;-4.39;71.35
57791;BME280;43621;51.798;21.588;2022-12-18T03:53:25;101429.09;;;-4.32;71.50
57791;BME280;43621;51.798;21.588;2022-12-18T03:57:25;101432.00;;;-4.33;71.43
57791;BME280;43621;51.798;21.588;2022-12-18T04:01:34;101442.08;;;-4.36;71.42
57791;BME280;43621;51.798;21.588;2022-12-18T04:05:40;101449.95;;;-4.40;71.44
57791;BME280;43621;51.798;21.588;2022-12-18T04:09:46;101445.38;;;-4.46;71.31
57791;BME280;43621;51.798;21.588;2022-12-18T04:13:49;101445.42;;;-4.51;71.33
57791;BME280;43621;51.798;21.588;2022-12-18T04:17:51;101449.86;;;-4.54;71.35
57791;BME280;43621;51.798;21.588;2022-12-18T04:21:53;101453.25;;;-4.51;71.26
57791;BME280;43621;51.798;21.588;2022-12-18T04:25:55;101452.52;;;-4.41;71.24
57791;BME280;43621;51.798;21.588;2022-12-18T04:29:57;101456.52;;;-4.30;71.29
57791;BME280;43621;51.798;21.588;2022-12-18T04:33:59;101459.86;;;-4.19;71.25
57791;BME280;43621;51.798;21.588;2022-12-18T04:38:01;101467.14;;;-4.13;71.29
57791;BME280;43621;51.798;21.588;2022-12-18T04:42:03;101466.62;;;-4.11;71.31
57791;BME280;43621;51.798;21.588;2022-12-18T04:46:06;101475.84;;;-4.12;71.35
57791;BME280;43621;51.798;21.588;2022-12-18T04:50:08;101487.13;;;-4.16;71.38
57791;BME280;43621;51.798;21.588;2022-12-18T04:54:10;101491.44;;;-4.24;71.31
57791;BME280;43621;51.798;21.588;2022-12-18T04:58:12;101493.53;;;-4.32;71.17
57791;BME280;43621;51.798;21.588;2022-12-18T05:02:14;101502.60;;;-4.38;71.25
57791;BME280;43621;51.798;21.588;2022-12-18T05:06:16;101509.29;;;-4.44;71.25
57791;BME280;43621;51.798;21.588;2022-12-18T05:10:18;101515.09;;;-4.45;71.15
57791;BME280;43621;51.798;21.588;2022-12-18T05:14:20;101521.20;;;-4.39;71.14
57791;BME280;43621;51.798;21.588;2022-12-18T05:18:22;101528.82;;;-4.32;71.23
57791;BME280;43621;51.798;21.588;2022-12-18T05:22:24;101534.23;;;-4.25;71.28
57791;BME280;43621;51.798;21.588;2022-12-18T05:26:27;101540.67;;;-4.19;71.32
57791;BME280;43621;51.798;21.588;2022-12-18T05:30:29;101549.38;;;-4.18;71.30
57791;BME280;43621;51.798;21.588;2022-12-18T05:34:31;101558.77;;;-4.23;71.35
57791;BME280;43621;51.798;21.588;2022-12-18T05:38:35;101561.34;;;-4.25;71.33
57791;BME280;43621;51.798;21.588;2022-12-18T05:42:37;101566.48;;;-4.28;71.40
57791;BME280;43621;51.798;21.588;2022-12-18T05:46:42;101572.63;;;-4.32;71.33
57791;BME280;43621;51.798;21.588;2022-12-18T05:50:45;101577.58;;;-4.34;71.40
57791;BME280;43621;51.798;21.588;2022-12-18T05:54:48;101582.69;;;-4.33;71.29
57791;BME280;43621;51.798;21.588;2022-12-18T05:58:53;101585.05;;;-4.27;71.27
57791;BME280;43621;51.798;21.588;2022-12-18T06:02:56;101592.19;;;-4.22;71.16
57791;BME280;43621;51.798;21.588;2022-12-18T06:06:58;101598.66;;;-4.22;71.13
57791;BME280;43621;51.798;21.588;2022-12-18T06:11:00;101603.62;;;-4.24;71.18
57791;BME280;43621;51.798;21.588;2022-12-18T06:15:02;101613.52;;;-4.26;71.22
57791;BME280;43621;51.798;21.588;2022-12-18T06:19:05;101619.67;;;-4.29;71.14
57791;BME280;43621;51.798;21.588;2022-12-18T06:23:07;101628.55;;;-4.34;71.16
57791;BME280;43621;51.798;21.588;2022-12-18T06:27:10;101633.34;;;-4.38;71.22
57791;BME280;43621;51.798;21.588;2022-12-18T06:31:12;101645.27;;;-4.35;71.18
57791;BME280;43621;51.798;21.588;2022-12-18T06:35:14;101652.73;;;-4.31;71.13
57791;BME280;43621;51.798;21.588;2022-12-18T06:39:16;101655.28;;;-4.26;70.98
57791;BME280;43621;51.798;21.588;2022-12-18T06:43:17;101663.96;;;-4.23;70.97
57791;BME280;43621;51.798;21.588;2022-12-18T06:47:19;101669.95;;;-4.25;70.99
57791;BME280;43621;51.798;21.588;2022-12-18T06:51:23;101677.45;;;-4.27;71.01
57791;BME280;43621;51.798;21.588;2022-12-18T06:55:25;101683.95;;;-4.31;70.99
57791;BME280;43621;51.798;21.588;2022-12-18T06:59:27;101689.92;;;-4.33;70.92
57791;BME280;43621;51.798;21.588;2022-12-18T07:03:29;101697.77;;;-4.35;70.98
57791;BME280;43621;51.798;21.588;2022-12-18T07:07:33;101704.41;;;-4.32;70.87
57791;BME280;43621;51.798;21.588;2022-12-18T07:11:35;101707.80;;;-4.24;70.89
57791;BME280;43621;51.798;21.588;2022-12-18T07:15:37;101710.67;;;-4.18;70.75
57791;BME280;43621;51.798;21.588;2022-12-18T07:19:39;101719.70;;;-4.13;70.76
57791;BME280;43621;51.798;21.588;2022-12-18T07:23:41;101727.02;;;-4.10;70.79
57791;BME280;43621;51.798;21.588;2022-12-18T07:27:43;101737.42;;;-4.09;70.73
57791;BME280;43621;51.798;21.588;2022-12-18T07:31:45;101740.83;;;-4.10;70.67
57791;BME280;43621;51.798;21.588;2022-12-18T07:35:47;101751.91;;;-4.10;70.60
57791;BME280;43621;51.798;21.588;2022-12-18T07:39:49;101756.35;;;-4.09;70.60
57791;BME280;43621;51.798;21.588;2022-12-18T07:43:51;101764.70;;;-4.07;70.56
57791;BME280;43621;51.798;21.588;2022-12-18T07:47:53;101772.53;;;-4.03;70.41
57791;BME280;43621;51.798;21.588;2022-12-18T07:51:55;101773.54;;;-3.94;70.34
57791;BME280;43621;51.798;21.588;2022-12-18T07:56:03;101773.35;;;-3.82;70.31
57791;BME280;43621;51.798;21.588;2022-12-18T08:00:07;101779.79;;;-3.72;70.13
57791;BME280;43621;51.798;21.588;2022-12-18T08:04:09;101789.66;;;-3.66;70.13
57791;BME280;43621;51.798;21.588;2022-12-18T08:08:11;101791.70;;;-3.63;70.03
57791;BME280;43621;51.798;21.588;2022-12-18T08:12:13;101801.25;;;-3.62;69.94
57791;BME280;43621;51.798;21.588;2022-12-18T08:16:15;101813.54;;;-3.59;69.95
57791;BME280;43621;51.798;21.588;2022-12-18T08:20:18;101813.16;;;-3.53;69.84
57791;BME280;43621;51.798;21.588;2022-12-18T08:24:20;101817.42;;;-3.50;69.75
57791;BME280;43621;51.798;21.588;2022-12-18T08:28:21;101827.13;;;-3.45;69.66
57791;BME280;43621;51.798;21.588;2022-12-18T08:32:25;101833.89;;;-3.30;69.65
57791;BME280;43621;51.798;21.588;2022-12-18T08:36:27;101839.71;;;-3.03;69.47
57791;BME280;43621;51.798;21.588;2022-12-18T08:40:29;101842.56;;;-2.65;69.33
57791;BME280;43621;51.798;21.588;2022-12-18T08:44:31;101851.33;;;-2.27;69.18
57791;BME280;43621;51.798;21.588;2022-12-18T08:48:38;101851.96;;;-2.03;68.81
57791;BME280;43621;51.798;21.588;2022-12-18T08:52:40;101856.06;;;-1.85;68.52
57791;BME280;43621;51.798;21.588;2022-12-18T08:56:42;101858.29;;;-1.85;68.00
57791;BME280;43621;51.798;21.588;2022-12-18T09:00:44;101868.30;;;-1.93;67.83
57791;BME280;43621;51.798;21.588;2022-12-18T09:04:47;101871.80;;;-1.83;67.76
57791;BME280;43621;51.798;21.588;2022-12-18T09:08:49;101873.10;;;-1.62;68.04
57791;BME280;43621;51.798;21.588;2022-12-18T09:12:51;101881.52;;;-1.48;67.74
57791;BME280;43621;51.798;21.588;2022-12-18T09:16:53;101882.96;;;-1.41;67.39
57791;BME280;43621;51.798;21.588;2022-12-18T09:20:55;101882.18;;;-1.31;67.41
57791;BME280;43621;51.798;21.588;2022-12-18T09:24:57;101880.00;;;-1.19;67.28
57791;BME280;43621;51.798;21.588;2022-12-18T09:28:59;101883.44;;;-1.08;67.33
57791;BME280;43621;51.798;21.588;2022-12-18T09:33:01;101892.27;;;-0.89;67.29
57791;BME280;43621;51.798;21.588;2022-12-18T09:37:03;101902.36;;;-0.87;66.93
57791;BME280;43621;51.798;21.588;2022-12-18T09:45:43;101898.92;;;-1.12;66.23
57791;BME280;43621;51.798;21.588;2022-12-18T09:49:54;101899.55;;;-1.20;66.36
57791;BME280;43621;51.798;21.588;2022-12-18T09:54:07;101903.89;;;-1.25;66.25
57791;BME280;43621;51.798;21.588;2022-12-18T09:58:30;101902.55;;;-1.14;66.12
57791;BME280;43621;51.798;21.588;2022-12-18T10:02:33;101906.06;;;-1.21;66.18
57791;BME280;43621;51.798;21.588;2022-12-18T10:06:45;101921.66;;;-1.21;66.25
57791;BME280;43621;51.798;21.588;2022-12-18T10:10:52;101923.39;;;-1.23;66.03
57791;BME280;43621;51.798;21.588;2022-12-18T10:15:05;101921.39;;;-1.28;65.94
57791;BME280;43621;51.798;21.588;2022-12-18T10:19:24;101916.96;;;-1.32;66.03
57791;BME280;43621;51.798;21.588;2022-12-18T10:23:45;101913.00;;;-1.28;66.14
57791;BME280;43621;51.798;21.588;2022-12-18T10:27:56;101916.25;;;-1.27;66.16
57791;BME280;43621;51.798;21.588;2022-12-18T10:31:59;101923.04;;;-1.22;66.26
57791;BME280;43621;51.798;21.588;2022-12-18T10:36:01;101927.38;;;-1.12;66.25
57791;BME280;43621;51.798;21.588;2022-12-18T10:40:14;101931.09;;;-1.07;65.82
57791;BME280;43621;51.798;21.588;2022-12-18T10:44:19;101932.72;;;-0.86;66.00
57791;BME280;43621;51.798;21.588;2022-12-18T10:48:22;101939.83;;;-0.93;65.37
57791;BME280;43621;51.798;21.588;2022-12-18T10:52:25;101945.18;;;-1.11;65.37
57791;BME280;43621;51.798;21.588;2022-12-18T10:56:29;101940.78;;;-1.15;65.52
57791;BME280;43621;51.798;21.588;2022-12-18T11:00:31;101940.61;;;-1.14;65.57
57791;BME280;43621;51.798;21.588;2022-12-18T11:04:33;101938.06;;;-1.04;65.65
57791;BME280;43621;51.798;21.588;2022-12-18T11:08:37;101929.42;;;-0.84;65.68
57791;BME280;43621;51.798;21.588;2022-12-18T11:12:40;101936.34;;;-0.76;65.56
57791;BME280;43621;51.798;21.588;2022-12-18T11:16:46;101946.45;;;-0.76;65.40
57791;BME280;43621;51.798;21.588;2022-12-18T11:21:07;101946.66;;;-0.66;65.43
57791;BME280;43621;51.798;21.588;2022-12-18T11:29:22;101952.59;;;-0.73;65.04
57791;BME280;43621;51.798;21.588;2022-12-18T11:33:25;101951.88;;;-0.84;64.96
57791;BME280;43621;51.798;21.588;2022-12-18T11:37:28;101954.67;;;-0.88;64.85
57791;BME280;43621;51.798;21.588;2022-12-18T11:41:36;101959.36;;;-0.93;64.89
57791;BME280;43621;51.798;21.588;2022-12-18T11:46:12;101960.61;;;-0.96;64.97
57791;BME280;43621;51.798;21.588;2022-12-18T11:50:21;101959.55;;;-1.07;64.98
57791;BME280;43621;51.798;21.588;2022-12-18T11:54:25;101959.64;;;-1.15;65.18
57791;BME280;43621;51.798;21.588;2022-12-18T12:12:08;101972.73;;;-1.21;65.23
57791;BME280;43621;51.798;21.588;2022-12-18T12:16:29;101975.76;;;-1.16;65.32
57791;BME280;43621;51.798;21.588;2022-12-18T12:20:56;101980.40;;;-1.18;65.20
57791;BME280;43621;51.798;21.588;2022-12-18T12:38:20;102024.67;;;-1.45;65.19
57791;BME280;43621;51.798;21.588;2022-12-18T12:42:37;102022.60;;;-1.43;65.34
57791;BME280;43621;51.798;21.588;2022-12-18T12:47:04;102022.80;;;-1.47;65.20
57791;BME280;43621;51.798;21.588;2022-12-18T12:51:19;102024.64;;;-1.61;64.98
57791;BME280;43621;51.798;21.588;2022-12-18T12:55:25;102028.01;;;-1.74;65.02
57791;BME280;43621;51.798;21.588;2022-12-18T13:03:55;102021.10;;;-1.88;65.06
57791;BME280;43621;51.798;21.588;2022-12-18T13:08:04;102030.06;;;-1.98;64.91
57791;BME280;43621;51.798;21.588;2022-12-18T13:12:11;102038.70;;;-2.11;64.80
57791;BME280;43621;51.798;21.588;2022-12-18T13:16:32;102041.83;;;-2.15;64.95
57791;BME280;43621;51.798;21.588;2022-12-18T13:20:38;102045.95;;;-2.17;65.06
57791;BME280;43621;51.798;21.588;2022-12-18T13:24:41;102053.30;;;-2.18;65.11
57791;BME280;43621;51.798;21.588;2022-12-18T13:32:47;102052.15;;;-2.27;65.22
57791;BME280;43621;51.798;21.588;2022-12-18T13:36:50;102059.85;;;-2.27;65.46
57791;BME280;43621;51.798;21.588;2022-12-18T13:40:54;102060.90;;;-2.32;65.58
57791;BME280;43621;51.798;21.588;2022-12-18T13:44:57;102068.66;;;-2.45;65.29
57791;BME280;43621;51.798;21.588;2022-12-18T13:49:37;102072.98;;;-2.54;65.56
57791;BME280;43621;51.798;21.588;2022-12-18T13:53:48;102086.66;;;-2.62;65.66
57791;BME280;43621;51.798;21.588;2022-12-18T13:58:03;102093.20;;;-2.81;65.32
57791;BME280;43621;51.798;21.588;2022-12-18T14:02:17;102096.16;;;-3.05;65.21
57791;BME280;43621;51.798;21.588;2022-12-18T14:06:20;102099.95;;;-3.26;65.33
57791;BME280;43621;51.798;21.588;2022-12-18T14:10:22;102097.05;;;-3.48;65.31
57791;BME280;43621;51.798;21.588;2022-12-18T14:14:24;102095.52;;;-3.62;65.68
57791;BME280;43621;51.798;21.588;2022-12-18T14:18:32;102093.98;;;-3.68;65.97
57791;BME280;43621;51.798;21.588;2022-12-18T14:22:37;102094.32;;;-3.69;66.11
57791;BME280;43621;51.798;21.588;2022-12-18T14:26:39;102099.77;;;-3.65;66.19
57791;BME280;43621;51.798;21.588;2022-12-18T14:30:43;102103.54;;;-3.61;66.15
57791;BME280;43621;51.798;21.588;2022-12-18T14:34:47;102112.08;;;-3.56;66.31
57791;BME280;43621;51.798;21.588;2022-12-18T14:38:58;102120.95;;;-3.49;66.44
57791;BME280;43621;51.798;21.588;2022-12-18T14:43:00;102123.00;;;-3.49;66.45
57791;BME280;43621;51.798;21.588;2022-12-18T14:47:02;102127.44;;;-3.55;66.36
57791;BME280;43621;51.798;21.588;2022-12-18T14:51:25;102127.77;;;-3.66;66.24
57791;BME280;43621;51.798;21.588;2022-12-18T14:55:28;102123.66;;;-3.71;66.46
57791;BME280;43621;51.798;21.588;2022-12-18T14:59:31;102132.70;;;-3.77;66.47
57791;BME280;43621;51.798;21.588;2022-12-18T15:03:33;102142.58;;;-3.85;66.48
57791;BME280;43621;51.798;21.588;2022-12-18T15:07:46;102143.38;;;-3.96;66.47
57791;BME280;43621;51.798;21.588;2022-12-18T15:11:48;102143.36;;;-4.02;66.69
57791;BME280;43621;51.798;21.588;2022-12-18T15:15:53;102149.84;;;-4.03;66.83
57791;BME280;43621;51.798;21.588;2022-12-18T15:20:02;102149.65;;;-4.05;66.78
57791;BME280;43621;51.798;21.588;2022-12-18T15:24:18;102145.88;;;-4.10;66.71
57791;BME280;43621;51.798;21.588;2022-12-18T15:28:24;102149.45;;;-4.15;66.63
57791;BME280;43621;51.798;21.588;2022-12-18T15:32:28;102154.23;;;-4.12;66.79
57791;BME280;43621;51.798;21.588;2022-12-18T15:36:30;102154.95;;;-4.01;66.88
57791;BME280;43621;51.798;21.588;2022-12-18T15:40:32;102158.58;;;-3.92;67.02
57791;BME280;43621;51.798;21.588;2022-12-18T15:44:34;102154.88;;;-3.80;67.22
57791;BME280;43621;51.798;21.588;2022-12-18T15:48:42;102154.90;;;-3.72;67.30
57791;BME280;43621;51.798;21.588;2022-12-18T15:52:46;102161.05;;;-3.66;67.37
57791;BME280;43621;51.798;21.588;2022-12-18T15:56:48;102161.21;;;-3.71;67.08
57791;BME280;43621;51.798;21.588;2022-12-18T16:01:10;102163.23;;;-3.83;66.99
57791;BME280;43621;51.798;21.588;2022-12-18T16:05:17;102173.27;;;-3.88;67.19
57791;BME280;43621;51.798;21.588;2022-12-18T16:09:19;102177.85;;;-3.91;67.20
57791;BME280;43621;51.798;21.588;2022-12-18T16:13:21;102182.06;;;-4.04;67.03
57791;BME280;43621;51.798;21.588;2022-12-18T16:17:23;102182.52;;;-4.17;67.02
57791;BME280;43621;51.798;21.588;2022-12-18T16:21:25;102194.65;;;-4.14;67.15
57791;BME280;43621;51.798;21.588;2022-12-18T16:25:28;102202.86;;;-4.07;67.35
57791;BME280;43621;51.798;21.588;2022-12-18T16:29:30;102207.83;;;-4.04;67.51
57791;BME280;43621;51.798;21.588;2022-12-18T16:33:32;102210.38;;;-4.03;67.53
57791;BME280;43621;51.798;21.588;2022-12-18T16:37:33;102217.03;;;-4.05;67.66
57791;BME280;43621;51.798;21.588;2022-12-18T16:41:35;102207.81;;;-4.06;67.50
57791;BME280;43621;51.798;21.588;2022-12-18T16:45:37;102206.26;;;-4.10;67.58
57791;BME280;43621;51.798;21.588;2022-12-18T16:49:39;102206.57;;;-4.16;67.47
57791;BME280;43621;51.798;21.588;2022-12-18T16:53:41;102202.59;;;-4.31;67.38
57791;BME280;43621;51.798;21.588;2022-12-18T16:57:42;102201.35;;;-4.37;67.60
57791;BME280;43621;51.798;21.588;2022-12-18T17:01:44;102202.39;;;-4.37;67.72
57791;BME280;43621;51.798;21.588;2022-12-18T17:05:46;102198.43;;;-4.43;67.54
57791;BME280;43621;51.798;21.588;2022-12-18T17:09:48;102191.90;;;-4.52;67.58
57791;BME280;43621;51.798;21.588;2022-12-18T17:13:51;102191.14;;;-4.65;67.72
57791;BME280;43621;51.798;21.588;2022-12-18T17:17:53;102194.49;;;-4.73;67.83
57791;BME280;43621;51.798;21.588;2022-12-18T17:21:55;102201.27;;;-4.77;67.94
57791;BME280;43621;51.798;21.588;2022-12-18T17:25:58;102206.33;;;-4.85;68.01
57791;BME280;43621;51.798;21.588;2022-12-18T17:30:00;102213.30;;;-4.87;68.10
57791;BME280;43621;51.798;21.588;2022-12-18T17:34:02;102219.63;;;-4.84;68.53
57791;BME280;43621;51.798;21.588;2022-12-18T17:38:04;102223.88;;;-4.86;68.50
57791;BME280;43621;51.798;21.588;2022-12-18T17:42:06;102220.95;;;-4.90;68.51
57791;BME280;43621;51.798;21.588;2022-12-18T17:46:13;102225.88;;;-4.91;68.73
57791;BME280;43621;51.798;21.588;2022-12-18T17:50:15;102232.47;;;-4.97;68.54
57791;BME280;43621;51.798;21.588;2022-12-18T17:54:17;102226.16;;;-4.97;68.58
57791;BME280;43621;51.798;21.588;2022-12-18T17:58:19;102221.06;;;-4.97;68.83
57791;BME280;43621;51.798;21.588;2022-12-18T18:02:21;102225.23;;;-5.06;68.86
57791;BME280;43621;51.798;21.588;2022-12-18T18:06:23;102229.95;;;-5.13;68.75
57791;BME280;43621;51.798;21.588;2022-12-18T18:10:25;102235.88;;;-5.15;68.84
57791;BME280;43621;51.798;21.588;2022-12-18T18:14:27;102239.96;;;-5.17;68.85
57791;BME280;43621;51.798;21.588;2022-12-18T18:18:29;102241.83;;;-5.18;69.10
57791;BME280;43621;51.798;21.588;2022-12-18T18:22:32;102248.98;;;-5.17;69.60
57791;BME280;43621;51.798;21.588;2022-12-18T18:26:35;102253.91;;;-5.18;69.42
57791;BME280;43621;51.798;21.588;2022-12-18T18:30:37;102262.94;;;-5.18;69.42
57791;BME280;43621;51.798;21.588;2022-12-18T18:34:39;102273.11;;;-5.20;69.36
57791;BME280;43621;51.798;21.588;2022-12-18T18:38:40;102269.50;;;-5.22;69.74
57791;BME280;43621;51.798;21.588;2022-12-18T18:42:43;102264.50;;;-5.28;69.71
57791;BME280;43621;51.798;21.588;2022-12-18T18:46:44;102263.73;;;-5.36;69.75
57791;BME280;43621;51.798;21.588;2022-12-18T18:51:02;102260.63;;;-5.40;69.77
57791;BME280;43621;51.798;21.588;2022-12-18T18:55:06;102261.63;;;-5.42;69.81
57791;BME280;43621;51.798;21.588;2022-12-18T18:59:08;102269.47;;;-5.41;70.05
57791;BME280;43621;51.798;21.588;2022-12-18T19:03:09;102275.40;;;-5.43;69.96
57791;BME280;43621;51.798;21.588;2022-12-18T19:07:15;102272.10;;;-5.50;69.90
57791;BME280;43621;51.798;21.588;2022-12-18T19:11:19;102267.48;;;-5.53;69.79
57791;BME280;43621;51.798;21.588;2022-12-18T19:15:41;102264.12;;;-5.49;69.83
57791;BME280;43621;51.798;21.588;2022-12-18T19:19:44;102271.02;;;-5.40;69.91
57791;BME280;43621;51.798;21.588;2022-12-18T19:23:46;102285.02;;;-5.36;70.11
57791;BME280;43621;51.798;21.588;2022-12-18T19:27:49;102285.64;;;-5.41;70.10
57791;BME280;43621;51.798;21.588;2022-12-18T19:31:51;102286.23;;;-5.50;70.15
57791;BME280;43621;51.798;21.588;2022-12-18T19:35:53;102283.79;;;-5.55;69.98
57791;BME280;43621;51.798;21.588;2022-12-18T19:39:55;102280.02;;;-5.57;70.13
57791;BME280;43621;51.798;21.588;2022-12-18T19:43:57;102284.55;;;-5.62;70.32
57791;BME280;43621;51.798;21.588;2022-12-18T19:47:59;102291.58;;;-5.72;70.35
57791;BME280;43621;51.798;21.588;2022-12-18T19:52:00;102300.36;;;-5.77;70.58
57791;BME280;43621;51.798;21.588;2022-12-18T19:56:07;102296.61;;;-5.78;70.72
57791;BME280;43621;51.798;21.588;2022-12-18T20:00:11;102295.08;;;-5.78;70.96
57791;BME280;43621;51.798;21.588;2022-12-18T20:04:13;102297.77;;;-5.80;70.78
57791;BME280;43621;51.798;21.588;2022-12-18T20:08:15;102302.45;;;-5.87;70.68
57791;BME280;43621;51.798;21.588;2022-12-18T20:12:17;102305.77;;;-5.95;70.78
57791;BME280;43621;51.798;21.588;2022-12-18T20:16:25;102315.33;;;-5.93;70.98
57791;BME280;43621;51.798;21.588;2022-12-18T20:20:35;102322.46;;;-5.93;71.02
57791;BME280;43621;51.798;21.588;2022-12-18T20:24:38;102327.66;;;-5.98;71.04
57791;BME280;43621;51.798;21.588;2022-12-18T20:28:40;102323.95;;;-6.08;71.11
57791;BME280;43621;51.798;21.588;2022-12-18T20:32:43;102311.88;;;-6.08;71.08
57791;BME280;43621;51.798;21.588;2022-12-18T20:36:45;102306.32;;;-6.04;71.06
57791;BME280;43621;51.798;21.588;2022-12-18T20:40:47;102307.28;;;-6.09;71.07
57791;BME280;43621;51.798;21.588;2022-12-18T20:44:49;102299.58;;;-6.13;71.17
57791;BME280;43621;51.798;21.588;2022-12-18T20:48:50;102292.41;;;-6.15;71.47
57791;BME280;43621;51.798;21.588;2022-12-18T20:52:52;102286.88;;;-6.21;71.50
57791;BME280;43621;51.798;21.588;2022-12-18T20:56:55;102283.67;;;-6.31;71.38
57791;BME280;43621;51.798;21.588;2022-12-18T21:01:06;102283.63;;;-6.34;71.61
57791;BME280;43621;51.798;21.588;2022-12-18T21:05:09;102272.58;;;-6.35;71.62
57791;BME280;43621;51.798;21.588;2022-12-18T21:09:10;102265.46;;;-6.44;71.66
57791;BME280;43621;51.798;21.588;2022-12-18T21:13:12;102263.41;;;-6.54;71.99
57791;BME280;43621;51.798;21.588;2022-12-18T21:17:14;102266.16;;;-6.63;72.44
57791;BME280;43621;51.798;21.588;2022-12-18T21:21:16;102274.15;;;-6.63;72.41
57791;BME280;43621;51.798;21.588;2022-12-18T21:25:18;102285.49;;;-6.66;72.23
57791;BME280;43621;51.798;21.588;2022-12-18T21:29:24;102294.27;;;-6.70;72.37
57791;BME280;43621;51.798;21.588;2022-12-18T21:33:26;102294.09;;;-6.69;72.72
57791;BME280;43621;51.798;21.588;2022-12-18T21:37:28;102297.84;;;-6.69;72.78
57791;BME280;43621;51.798;21.588;2022-12-18T21:41:30;102299.00;;;-6.70;72.76
57791;BME280;43621;51.798;21.588;2022-12-18T21:45:51;102303.89;;;-6.72;72.61
57791;BME280;43621;51.798;21.588;2022-12-18T21:49:53;102302.24;;;-6.70;72.82
57791;BME280;43621;51.798;21.588;2022-12-18T21:53:54;102300.11;;;-6.64;72.67
57791;BME280;43621;51.798;21.588;2022-12-18T21:57:56;102303.14;;;-6.67;72.55
57791;BME280;43621;51.798;21.588;2022-12-18T22:02:01;102304.23;;;-6.72;72.69
57791;BME280;43621;51.798;21.588;2022-12-18T22:06:03;102296.73;;;-6.74;72.73